This is the latest recevied weather packets stored in our database for station/object KMEM. If no packets are shown the sender has not sent any weather packets the latest 1 day(s).
| Time | Temp. | Humidity | Pressure | Rain* | Wind** | Luminosity | Snow |
|---|---|---|---|---|---|---|---|
| 1778057617 | 11.67° C | 93% | 1008.8 hPa | - | - | - | - |
| 1778056415 | 11.67° C | 93% | 1008.1 hPa | - | - | - | - |
| 1778055212 | 11.67° C | 93% | 1009.1 hPa | - | - | - | - |
| 1778054613 | 11.67° C | 93% | 1008.8 hPa | - | - | - | - |
| 1778053415 | 12.78° C | 93% | 1007.8 hPa | - | - | - | - |
| 1778052814 | 12.78° C | 93% | 1007.8 hPa | - | - | - | - |
| 1778052214 | 15° C | 93% | 1007.8 hPa | - | - | - | - |
| 1778051615 | 15° C | 93% | 1007.8 hPa | - | - | - | - |
| 1778050411 | 17.78° C | 88% | 1007.5 hPa | - | - | - | - |
| 1778049812 | 21.67° C | 83% | 1006.4 hPa | - | - | - | - |
| 1778049219 | 21.67° C | 83% | 1006.4 hPa | - | - | - | - |
| 1778048614 | 21.67° C | 83% | 1006.4 hPa | - | - | - | - |
| 1778046219 | 21.67° C | 78% | 1006.8 hPa | - | - | - | - |
| 1778045612 | 21.67° C | 78% | 1006.8 hPa | - | - | - | - |
| 1778045014 | 21.67° C | 78% | 1006.8 hPa | - | - | - | - |
| 1778044413 | 21.67° C | 78% | 1006.8 hPa | - | - | - | - |
| 1778042615 | 20.56° C | 83% | 1007.5 hPa | - | - | - | - |
| 1778042014 | 20.56° C | 83% | 1007.5 hPa | - | - | - | - |
| 1778041415 | 20.56° C | 83% | 1007.5 hPa | - | - | - | - |
| 1778040816 | 20.56° C | 83% | 1007.5 hPa | - | - | - | - |
| 1778040334 | 20.56° C | 83% | 1007.5 hPa | - | - | - | - |
| 1778039612 | 20.56° C | 83% | 1007.8 hPa | - | - | - | - |
| 1778039019 | 20.56° C | 83% | 1007.8 hPa | - | - | - | - |
| 1778038418 | 20.56° C | 83% | 1007.8 hPa | - | - | - | - |
| 1778037817 | 20.56° C | 83% | 1007.8 hPa | - | - | - | - |
* Rain since midnight (hover to see other rain measurements)
** Current wind speed in m/s (hover to see current wind gust speed)